Terminal Aerodrome Forecast
Issued by NWS

Home | Current Version | Previous Version | Text Only | Print | Product List | Glossary On
Versions: 1 2 3 4 5 6 7 8 9 10 11 12 13 14 15 16 17 18 19 20 21 22 23 24 25 26 27 28 29 30
000
FTUS43 KMKX 231120
TAFENW
TAF
KENW 231120Z 2312/2412 18008KT 1 1/2SM -RA BR OVC003
     FM231400 22008KT 3SM BR OVC003
     FM231600 26012KT 6SM BR BKN005
     FM231700 26012G22KT P6SM BKN008
     FM231900 27012KT P6SM BKN020
     FM232200 27010KT P6SM SCT025=

USA.gov is the U.S. government's official web portal to all federal, state and local government web resources and services.